Cibecue, Arizona
Current Conditions -  °F | °C
As of 7:55 AM on Friday 31 Oct 2014 (Local Time) from KSOW Reporting Station
Haze Haze  
Wind Chill: 54°   Ceiling: Unl
Heat Index: 54°   Visibility: 3mi
Dew Point: 32°   Wind: 0mph
Humidity: 44%   Direction: NA
Pressure: 30.28"   Gusts: NA
Location:  34.03°N, 110.48°W
Report Text: KSOW 311455Z AUTO 00000KT 3SM HZ CLR 12/00 A3028 RMK AO2
Loading
Personal Weather Stations






























Interactive Weather Map
Tropical Storm Tracking
New forecast layout! Learn more

10-Day Weather Forecast

Advertisements
Track Severe Weather on mobile